Polzeath, United Kingdom
Current Conditions -  °F | °C
As of 6:20 PM on Thursday 30 Oct 2014 (Local Time) from EGHQ Reporting Station
Moderate Fog Moderate Fog  
Wind Chill: 14°   Ceiling: Unl
Heat Index: 14°   Visibility: 0.18mi
Dew Point: 14°   Wind: 14mph
Humidity: 100%   Direction: 170°S
Pressure: 30"   Gusts: NA
Location:  50.57°N, 4.92°W
Report Text: EGHQ 301820Z 17012KT 0300 R12/0650 FG VV/// 14/14 Q1016
Loading
Personal Weather Stations






























Interactive Weather Map
Tropical Storm Tracking
New forecast layout! Learn more

10-Day Weather Forecast

Advertisements
Track Severe Weather on mobile